sensor_id;sensor_type;location;lat;lon;timestamp;P1;durP1;ratioP1;P2;durP2;ratioP2
41817;SDS011;27493;51.730;5.294;2023-01-19T00:01:32;25.60;;;13.40;;
41817;SDS011;27493;51.730;5.294;2023-01-19T00:03:58;20.90;;;12.73;;
41817;SDS011;27493;51.730;5.294;2023-01-19T00:06:23;20.77;;;13.57;;
41817;SDS011;27493;51.730;5.294;2023-01-19T00:08:48;21.87;;;13.57;;
41817;SDS011;27493;51.730;5.294;2023-01-19T00:11:16;27.10;;;12.60;;
41817;SDS011;27493;51.730;5.294;2023-01-19T00:13:42;19.87;;;12.63;;
41817;SDS011;27493;51.730;5.294;2023-01-19T00:16:13;25.47;;;13.50;;
41817;SDS011;27493;51.730;5.294;2023-01-19T00:18:41;22.23;;;13.67;;
41817;SDS011;27493;51.730;5.294;2023-01-19T00:21:06;19.83;;;12.30;;
41817;SDS011;27493;51.730;5.294;2023-01-19T00:23:31;20.07;;;12.47;;
41817;SDS011;27493;51.730;5.294;2023-01-19T00:25:56;20.77;;;12.33;;
41817;SDS011;27493;51.730;5.294;2023-01-19T00:28:22;18.60;;;12.30;;
41817;SDS011;27493;51.730;5.294;2023-01-19T00:30:48;19.47;;;12.03;;
41817;SDS011;27493;51.730;5.294;2023-01-19T00:33:14;20.17;;;11.73;;
41817;SDS011;27493;51.730;5.294;2023-01-19T00:35:40;19.80;;;12.23;;
41817;SDS011;27493;51.730;5.294;2023-01-19T00:38:06;16.67;;;11.37;;
41817;SDS011;27493;51.730;5.294;2023-01-19T00:40:32;19.97;;;11.77;;
41817;SDS011;27493;51.730;5.294;2023-01-19T00:42:57;19.80;;;11.30;;
41817;SDS011;27493;51.730;5.294;2023-01-19T00:45:23;23.40;;;12.07;;
41817;SDS011;27493;51.730;5.294;2023-01-19T00:47:48;21.13;;;11.60;;
41817;SDS011;27493;51.730;5.294;2023-01-19T00:50:18;18.93;;;12.87;;
41817;SDS011;27493;51.730;5.294;2023-01-19T00:52:44;17.47;;;11.80;;
41817;SDS011;27493;51.730;5.294;2023-01-19T00:55:10;21.60;;;12.20;;
41817;SDS011;27493;51.730;5.294;2023-01-19T00:57:36;19.10;;;12.17;;
41817;SDS011;27493;51.730;5.294;2023-01-19T01:00:03;19.60;;;12.37;;
41817;SDS011;27493;51.730;5.294;2023-01-19T01:02:30;17.20;;;11.90;;
41817;SDS011;27493;51.730;5.294;2023-01-19T01:04:55;22.70;;;12.23;;
41817;SDS011;27493;51.730;5.294;2023-01-19T01:07:20;21.50;;;12.83;;
41817;SDS011;27493;51.730;5.294;2023-01-19T01:09:46;18.93;;;12.03;;
41817;SDS011;27493;51.730;5.294;2023-01-19T01:12:11;20.03;;;12.20;;
41817;SDS011;27493;51.730;5.294;2023-01-19T01:14:36;20.40;;;12.60;;
41817;SDS011;27493;51.730;5.294;2023-01-19T01:17:01;22.40;;;11.63;;
41817;SDS011;27493;51.730;5.294;2023-01-19T01:19:27;22.23;;;11.10;;
41817;SDS011;27493;51.730;5.294;2023-01-19T01:21:52;18.40;;;11.53;;
41817;SDS011;27493;51.730;5.294;2023-01-19T01:24:17;18.63;;;11.10;;
41817;SDS011;27493;51.730;5.294;2023-01-19T01:26:43;23.03;;;11.67;;
41817;SDS011;27493;51.730;5.294;2023-01-19T01:29:08;23.30;;;11.20;;
41817;SDS011;27493;51.730;5.294;2023-01-19T01:31:33;22.93;;;11.20;;
41817;SDS011;27493;51.730;5.294;2023-01-19T01:33:58;20.87;;;10.63;;
41817;SDS011;27493;51.730;5.294;2023-01-19T01:36:23;19.93;;;10.70;;
41817;SDS011;27493;51.730;5.294;2023-01-19T01:38:48;21.50;;;10.10;;
41817;SDS011;27493;51.730;5.294;2023-01-19T01:41:14;22.23;;;11.30;;
41817;SDS011;27493;51.730;5.294;2023-01-19T01:43:41;20.93;;;11.37;;
41817;SDS011;27493;51.730;5.294;2023-01-19T01:46:06;17.77;;;10.67;;
41817;SDS011;27493;51.730;5.294;2023-01-19T01:48:32;16.83;;;10.10;;
41817;SDS011;27493;51.730;5.294;2023-01-19T01:51:02;22.17;;;10.63;;
41817;SDS011;27493;51.730;5.294;2023-01-19T01:53:47;17.70;;;10.73;;
41817;SDS011;27493;51.730;5.294;2023-01-19T01:56:14;16.60;;;10.10;;
41817;SDS011;27493;51.730;5.294;2023-01-19T01:58:41;19.80;;;10.67;;
41817;SDS011;27493;51.730;5.294;2023-01-19T02:01:07;17.73;;;9.97;;
41817;SDS011;27493;51.730;5.294;2023-01-19T02:03:52;15.97;;;9.63;;
41817;SDS011;27493;51.730;5.294;2023-01-19T02:06:17;14.53;;;9.23;;
41817;SDS011;27493;51.730;5.294;2023-01-19T02:08:44;16.47;;;8.67;;
41817;SDS011;27493;51.730;5.294;2023-01-19T02:11:29;17.27;;;8.97;;
41817;SDS011;27493;51.730;5.294;2023-01-19T02:14:13;15.70;;;9.13;;
41817;SDS011;27493;51.730;5.294;2023-01-19T02:16:39;15.57;;;9.37;;
41817;SDS011;27493;51.730;5.294;2023-01-19T02:19:04;15.87;;;9.23;;
41817;SDS011;27493;51.730;5.294;2023-01-19T02:21:40;14.73;;;9.43;;
41817;SDS011;27493;51.730;5.294;2023-01-19T02:24:08;16.00;;;8.90;;
41817;SDS011;27493;51.730;5.294;2023-01-19T02:26:38;13.30;;;8.60;;
41817;SDS011;27493;51.730;5.294;2023-01-19T02:29:07;15.50;;;8.33;;
41817;SDS011;27493;51.730;5.294;2023-01-19T02:31:33;10.50;;;6.77;;
41817;SDS011;27493;51.730;5.294;2023-01-19T02:33:59;7.97;;;6.23;;
41817;SDS011;27493;51.730;5.294;2023-01-19T02:36:26;9.50;;;6.30;;
41817;SDS011;27493;51.730;5.294;2023-01-19T02:38:53;12.93;;;6.70;;
41817;SDS011;27493;51.730;5.294;2023-01-19T02:41:20;12.73;;;6.33;;
41817;SDS011;27493;51.730;5.294;2023-01-19T02:43:46;9.47;;;6.60;;
41817;SDS011;27493;51.730;5.294;2023-01-19T02:46:12;12.47;;;7.40;;
41817;SDS011;27493;51.730;5.294;2023-01-19T02:48:38;10.87;;;6.63;;
41817;SDS011;27493;51.730;5.294;2023-01-19T02:51:08;12.33;;;7.03;;
41817;SDS011;27493;51.730;5.294;2023-01-19T02:53:46;12.03;;;7.53;;
41817;SDS011;27493;51.730;5.294;2023-01-19T03:06:25;12.13;;;7.60;;
41817;SDS011;27493;51.730;5.294;2023-01-19T03:08:57;15.00;;;6.90;;
41817;SDS011;27493;51.730;5.294;2023-01-19T03:11:26;10.97;;;6.33;;
41817;SDS011;27493;51.730;5.294;2023-01-19T03:13:55;9.17;;;4.57;;
41817;SDS011;27493;51.730;5.294;2023-01-19T03:19:01;7.73;;;3.87;;
41817;SDS011;27493;51.730;5.294;2023-01-19T03:21:28;6.03;;;3.07;;
41817;SDS011;27493;51.730;5.294;2023-01-19T03:23:55;4.87;;;1.93;;
41817;SDS011;27493;51.730;5.294;2023-01-19T03:26:23;1.83;;;1.43;;
41817;SDS011;27493;51.730;5.294;2023-01-19T03:28:49;4.70;;;2.27;;
41817;SDS011;27493;51.730;5.294;2023-01-19T03:31:16;3.23;;;2.20;;
41817;SDS011;27493;51.730;5.294;2023-01-19T03:33:42;7.97;;;3.00;;
41817;SDS011;27493;51.730;5.294;2023-01-19T03:36:11;4.97;;;2.73;;
41817;SDS011;27493;51.730;5.294;2023-01-19T03:38:37;1.90;;;1.70;;
41817;SDS011;27493;51.730;5.294;2023-01-19T03:41:04;2.27;;;1.60;;
41817;SDS011;27493;51.730;5.294;2023-01-19T03:43:30;2.77;;;1.40;;
41817;SDS011;27493;51.730;5.294;2023-01-19T03:45:56;2.27;;;1.23;;
41817;SDS011;27493;51.730;5.294;2023-01-19T03:48:22;2.57;;;1.50;;
41817;SDS011;27493;51.730;5.294;2023-01-19T03:50:47;4.37;;;1.93;;
41817;SDS011;27493;51.730;5.294;2023-01-19T03:53:13;6.33;;;2.33;;
41817;SDS011;27493;51.730;5.294;2023-01-19T03:55:44;2.87;;;2.13;;
41817;SDS011;27493;51.730;5.294;2023-01-19T03:58:09;2.07;;;1.90;;
41817;SDS011;27493;51.730;5.294;2023-01-19T04:00:35;2.03;;;1.23;;
41817;SDS011;27493;51.730;5.294;2023-01-19T04:03:01;3.30;;;1.40;;
41817;SDS011;27493;51.730;5.294;2023-01-19T04:05:26;3.27;;;1.70;;
41817;SDS011;27493;51.730;5.294;2023-01-19T04:07:52;2.10;;;1.90;;
41817;SDS011;27493;51.730;5.294;2023-01-19T04:10:17;3.23;;;2.20;;
41817;SDS011;27493;51.730;5.294;2023-01-19T04:12:43;3.07;;;1.90;;
41817;SDS011;27493;51.730;5.294;2023-01-19T04:15:08;3.77;;;1.97;;
41817;SDS011;27493;51.730;5.294;2023-01-19T04:17:33;2.27;;;1.90;;
41817;SDS011;27493;51.730;5.294;2023-01-19T04:19:58;2.37;;;2.07;;
41817;SDS011;27493;51.730;5.294;2023-01-19T04:22:24;2.30;;;1.87;;
41817;SDS011;27493;51.730;5.294;2023-01-19T04:24:49;2.77;;;2.00;;
41817;SDS011;27493;51.730;5.294;2023-01-19T04:27:14;3.47;;;1.73;;
41817;SDS011;27493;51.730;5.294;2023-01-19T04:29:43;2.43;;;2.20;;
41817;SDS011;27493;51.730;5.294;2023-01-19T04:32:08;2.43;;;2.00;;
41817;SDS011;27493;51.730;5.294;2023-01-19T04:34:33;2.40;;;2.20;;
41817;SDS011;27493;51.730;5.294;2023-01-19T04:36:58;3.20;;;2.10;;
41817;SDS011;27493;51.730;5.294;2023-01-19T04:39:24;3.63;;;1.77;;
41817;SDS011;27493;51.730;5.294;2023-01-19T04:41:49;2.97;;;2.00;;
41817;SDS011;27493;51.730;5.294;2023-01-19T04:44:15;2.70;;;1.80;;
41817;SDS011;27493;51.730;5.294;2023-01-19T04:46:41;2.07;;;1.53;;
41817;SDS011;27493;51.730;5.294;2023-01-19T04:49:07;1.80;;;1.60;;
41817;SDS011;27493;51.730;5.294;2023-01-19T04:51:32;5.00;;;1.70;;
41817;SDS011;27493;51.730;5.294;2023-01-19T04:53:58;4.30;;;1.70;;
41817;SDS011;27493;51.730;5.294;2023-01-19T04:56:23;4.97;;;1.80;;
41817;SDS011;27493;51.730;5.294;2023-01-19T04:58:48;2.40;;;1.73;;
41817;SDS011;27493;51.730;5.294;2023-01-19T05:01:13;5.03;;;1.90;;
41817;SDS011;27493;51.730;5.294;2023-01-19T05:03:39;3.60;;;2.20;;
41817;SDS011;27493;51.730;5.294;2023-01-19T05:06:04;5.23;;;1.83;;
41817;SDS011;27493;51.730;5.294;2023-01-19T05:08:30;4.50;;;1.90;;
41817;SDS011;27493;51.730;5.294;2023-01-19T05:10:55;4.10;;;2.07;;
41817;SDS011;27493;51.730;5.294;2023-01-19T05:13:21;5.97;;;2.10;;
41817;SDS011;27493;51.730;5.294;2023-01-19T05:15:46;4.20;;;2.30;;
41817;SDS011;27493;51.730;5.294;2023-01-19T05:18:11;6.57;;;2.47;;
41817;SDS011;27493;51.730;5.294;2023-01-19T05:20:37;5.10;;;2.30;;
41817;SDS011;27493;51.730;5.294;2023-01-19T05:23:03;3.60;;;2.30;;
41817;SDS011;27493;51.730;5.294;2023-01-19T05:25:28;7.03;;;2.57;;
41817;SDS011;27493;51.730;5.294;2023-01-19T05:27:53;8.03;;;3.00;;
41817;SDS011;27493;51.730;5.294;2023-01-19T05:30:18;5.17;;;2.63;;
41817;SDS011;27493;51.730;5.294;2023-01-19T05:32:44;3.20;;;2.50;;
41817;SDS011;27493;51.730;5.294;2023-01-19T05:35:09;6.77;;;2.77;;
41817;SDS011;27493;51.730;5.294;2023-01-19T05:37:34;3.90;;;2.50;;
41817;SDS011;27493;51.730;5.294;2023-01-19T05:39:59;6.00;;;2.80;;
41817;SDS011;27493;51.730;5.294;2023-01-19T05:42:25;5.50;;;2.47;;
41817;SDS011;27493;51.730;5.294;2023-01-19T05:44:50;6.50;;;2.37;;
41817;SDS011;27493;51.730;5.294;2023-01-19T05:47:15;8.53;;;2.70;;
41817;SDS011;27493;51.730;5.294;2023-01-19T05:49:40;9.77;;;2.90;;
41817;SDS011;27493;51.730;5.294;2023-01-19T05:52:05;7.80;;;2.63;;
41817;SDS011;27493;51.730;5.294;2023-01-19T05:54:31;9.27;;;2.53;;
41817;SDS011;27493;51.730;5.294;2023-01-19T05:56:56;5.63;;;2.50;;
41817;SDS011;27493;51.730;5.294;2023-01-19T05:59:21;11.60;;;2.40;;
41817;SDS011;27493;51.730;5.294;2023-01-19T06:01:51;9.17;;;2.30;;
41817;SDS011;27493;51.730;5.294;2023-01-19T06:04:17;5.77;;;2.27;;
41817;SDS011;27493;51.730;5.294;2023-01-19T06:06:43;6.50;;;2.20;;
41817;SDS011;27493;51.730;5.294;2023-01-19T06:09:08;6.03;;;1.97;;
41817;SDS011;27493;51.730;5.294;2023-01-19T06:11:34;6.07;;;2.03;;
41817;SDS011;27493;51.730;5.294;2023-01-19T06:13:59;7.27;;;2.10;;
41817;SDS011;27493;51.730;5.294;2023-01-19T06:16:24;7.13;;;1.87;;
41817;SDS011;27493;51.730;5.294;2023-01-19T06:18:49;6.10;;;2.10;;
41817;SDS011;27493;51.730;5.294;2023-01-19T06:21:14;6.87;;;2.30;;
41817;SDS011;27493;51.730;5.294;2023-01-19T06:23:40;11.17;;;2.27;;
41817;SDS011;27493;51.730;5.294;2023-01-19T06:26:05;6.97;;;2.50;;
41817;SDS011;27493;51.730;5.294;2023-01-19T06:28:30;7.87;;;2.53;;
41817;SDS011;27493;51.730;5.294;2023-01-19T06:30:55;6.47;;;3.20;;
41817;SDS011;27493;51.730;5.294;2023-01-19T06:33:21;8.27;;;3.30;;
41817;SDS011;27493;51.730;5.294;2023-01-19T06:35:47;7.07;;;3.60;;
41817;SDS011;27493;51.730;5.294;2023-01-19T06:38:13;8.63;;;3.73;;
41817;SDS011;27493;51.730;5.294;2023-01-19T06:40:38;9.27;;;4.03;;
41817;SDS011;27493;51.730;5.294;2023-01-19T06:43:04;9.80;;;4.83;;
41817;SDS011;27493;51.730;5.294;2023-01-19T06:45:29;12.13;;;4.97;;
41817;SDS011;27493;51.730;5.294;2023-01-19T06:47:55;8.13;;;5.03;;
41817;SDS011;27493;51.730;5.294;2023-01-19T06:50:20;15.40;;;5.87;;
41817;SDS011;27493;51.730;5.294;2023-01-19T06:52:48;14.40;;;6.47;;
41817;SDS011;27493;51.730;5.294;2023-01-19T06:55:13;16.07;;;7.43;;
41817;SDS011;27493;51.730;5.294;2023-01-19T06:57:40;13.30;;;7.20;;
41817;SDS011;27493;51.730;5.294;2023-01-19T07:00:05;13.20;;;6.97;;
41817;SDS011;27493;51.730;5.294;2023-01-19T07:02:33;17.37;;;7.67;;
41817;SDS011;27493;51.730;5.294;2023-01-19T07:04:58;16.47;;;8.03;;
41817;SDS011;27493;51.730;5.294;2023-01-19T07:07:23;25.70;;;8.53;;
41817;SDS011;27493;51.730;5.294;2023-01-19T07:09:49;14.70;;;8.50;;
41817;SDS011;27493;51.730;5.294;2023-01-19T07:12:14;27.30;;;8.90;;
41817;SDS011;27493;51.730;5.294;2023-01-19T07:14:39;21.23;;;10.10;;
41817;SDS011;27493;51.730;5.294;2023-01-19T07:17:04;21.27;;;10.03;;
41817;SDS011;27493;51.730;5.294;2023-01-19T07:19:30;23.93;;;11.10;;
41817;SDS011;27493;51.730;5.294;2023-01-19T07:21:55;20.60;;;10.30;;
41817;SDS011;27493;51.730;5.294;2023-01-19T07:24:21;21.77;;;11.43;;
41817;SDS011;27493;51.730;5.294;2023-01-19T07:26:46;32.40;;;12.27;;
41817;SDS011;27493;51.730;5.294;2023-01-19T07:29:12;26.63;;;11.93;;
41817;SDS011;27493;51.730;5.294;2023-01-19T07:31:38;28.23;;;12.83;;
41817;SDS011;27493;51.730;5.294;2023-01-19T07:34:03;27.63;;;13.70;;
41817;SDS011;27493;51.730;5.294;2023-01-19T07:36:29;28.93;;;13.43;;
41817;SDS011;27493;51.730;5.294;2023-01-19T07:38:54;28.30;;;13.87;;
41817;SDS011;27493;51.730;5.294;2023-01-19T07:41:19;31.93;;;13.57;;
41817;SDS011;27493;51.730;5.294;2023-01-19T07:43:45;29.77;;;14.17;;
41817;SDS011;27493;51.730;5.294;2023-01-19T07:46:10;25.67;;;13.40;;
41817;SDS011;27493;51.730;5.294;2023-01-19T07:48:35;30.03;;;13.60;;
41817;SDS011;27493;51.730;5.294;2023-01-19T07:51:01;29.30;;;13.90;;
41817;SDS011;27493;51.730;5.294;2023-01-19T07:53:29;30.83;;;13.57;;
41817;SDS011;27493;51.730;5.294;2023-01-19T07:55:54;31.63;;;13.73;;
41817;SDS011;27493;51.730;5.294;2023-01-19T07:58:20;36.97;;;13.30;;
41817;SDS011;27493;51.730;5.294;2023-01-19T08:00:45;31.33;;;13.40;;
41817;SDS011;27493;51.730;5.294;2023-01-19T08:03:10;33.57;;;13.23;;
41817;SDS011;27493;51.730;5.294;2023-01-19T08:05:36;33.70;;;13.17;;
41817;SDS011;27493;51.730;5.294;2023-01-19T08:08:01;30.53;;;12.87;;
41817;SDS011;27493;51.730;5.294;2023-01-19T08:10:27;29.40;;;13.30;;
41817;SDS011;27493;51.730;5.294;2023-01-19T08:12:53;27.53;;;10.83;;
41817;SDS011;27493;51.730;5.294;2023-01-19T08:15:18;25.27;;;9.03;;
41817;SDS011;27493;51.730;5.294;2023-01-19T08:17:44;22.93;;;9.23;;
41817;SDS011;27493;51.730;5.294;2023-01-19T08:20:09;30.57;;;9.57;;
41817;SDS011;27493;51.730;5.294;2023-01-19T08:22:35;17.57;;;7.83;;
41817;SDS011;27493;51.730;5.294;2023-01-19T08:25:00;24.43;;;8.37;;
41817;SDS011;27493;51.730;5.294;2023-01-19T08:27:25;19.07;;;7.33;;
41817;SDS011;27493;51.730;5.294;2023-01-19T08:29:50;22.47;;;7.60;;
41817;SDS011;27493;51.730;5.294;2023-01-19T08:32:16;18.40;;;7.30;;
41817;SDS011;27493;51.730;5.294;2023-01-19T08:34:41;19.80;;;7.07;;
41817;SDS011;27493;51.730;5.294;2023-01-19T08:37:06;22.73;;;7.10;;
41817;SDS011;27493;51.730;5.294;2023-01-19T08:39:31;25.97;;;7.77;;
41817;SDS011;27493;51.730;5.294;2023-01-19T08:41:57;21.70;;;7.77;;
41817;SDS011;27493;51.730;5.294;2023-01-19T08:44:23;23.10;;;8.43;;
41817;SDS011;27493;51.730;5.294;2023-01-19T08:46:48;30.20;;;8.93;;
41817;SDS011;27493;51.730;5.294;2023-01-19T08:49:14;30.40;;;10.07;;
41817;SDS011;27493;51.730;5.294;2023-01-19T08:51:40;28.23;;;10.40;;
41817;SDS011;27493;51.730;5.294;2023-01-19T08:54:05;26.80;;;10.67;;
41817;SDS011;27493;51.730;5.294;2023-01-19T08:56:31;31.43;;;11.47;;
41817;SDS011;27493;51.730;5.294;2023-01-19T08:58:56;33.47;;;11.40;;
41817;SDS011;27493;51.730;5.294;2023-01-19T09:01:21;32.27;;;11.70;;
41817;SDS011;27493;51.730;5.294;2023-01-19T09:03:46;35.90;;;12.00;;
41817;SDS011;27493;51.730;5.294;2023-01-19T09:06:12;28.57;;;11.03;;
41817;SDS011;27493;51.730;5.294;2023-01-19T09:08:38;25.47;;;10.97;;
41817;SDS011;27493;51.730;5.294;2023-01-19T09:11:04;33.10;;;11.57;;
41817;SDS011;27493;51.730;5.294;2023-01-19T09:13:35;30.60;;;11.73;;
41817;SDS011;27493;51.730;5.294;2023-01-19T09:16:01;30.43;;;11.90;;
41817;SDS011;27493;51.730;5.294;2023-01-19T09:18:26;30.00;;;11.63;;
41817;SDS011;27493;51.730;5.294;2023-01-19T09:20:51;43.87;;;12.87;;
41817;SDS011;27493;51.730;5.294;2023-01-19T09:23:17;29.33;;;12.20;;
41817;SDS011;27493;51.730;5.294;2023-01-19T09:25:43;31.27;;;13.30;;
41817;SDS011;27493;51.730;5.294;2023-01-19T09:28:09;34.83;;;13.87;;
41817;SDS011;27493;51.730;5.294;2023-01-19T09:30:35;36.70;;;14.90;;
41817;SDS011;27493;51.730;5.294;2023-01-19T09:33:19;40.57;;;15.73;;
41817;SDS011;27493;51.730;5.294;2023-01-19T09:35:45;35.03;;;15.17;;
41817;SDS011;27493;51.730;5.294;2023-01-19T09:38:10;36.40;;;16.40;;
41817;SDS011;27493;51.730;5.294;2023-01-19T09:40:39;35.47;;;16.40;;
41817;SDS011;27493;51.730;5.294;2023-01-19T09:45:34;46.40;;;16.50;;
41817;SDS011;27493;51.730;5.294;2023-01-19T09:48:00;44.70;;;16.77;;
41817;SDS011;27493;51.730;5.294;2023-01-19T09:50:27;39.00;;;17.13;;
41817;SDS011;27493;51.730;5.294;2023-01-19T09:52:56;49.77;;;18.57;;
41817;SDS011;27493;51.730;5.294;2023-01-19T09:55:25;39.53;;;17.43;;
41817;SDS011;27493;51.730;5.294;2023-01-19T09:57:51;39.93;;;15.80;;
41817;SDS011;27493;51.730;5.294;2023-01-19T10:00:16;51.60;;;17.57;;
41817;SDS011;27493;51.730;5.294;2023-01-19T10:02:43;42.00;;;17.53;;
41817;SDS011;27493;51.730;5.294;2023-01-19T10:05:22;38.47;;;17.83;;
41817;SDS011;27493;51.730;5.294;2023-01-19T10:10:44;48.27;;;18.93;;
41817;SDS011;27493;51.730;5.294;2023-01-19T10:13:17;47.07;;;17.73;;
41817;SDS011;27493;51.730;5.294;2023-01-19T10:15:48;44.93;;;18.97;;
41817;SDS011;27493;51.730;5.294;2023-01-19T10:18:18;43.03;;;17.67;;
41817;SDS011;27493;51.730;5.294;2023-01-19T10:20:46;52.67;;;17.47;;
41817;SDS011;27493;51.730;5.294;2023-01-19T10:23:16;42.47;;;17.30;;
41817;SDS011;27493;51.730;5.294;2023-01-19T10:25:42;38.00;;;16.40;;
41817;SDS011;27493;51.730;5.294;2023-01-19T10:28:08;39.57;;;16.70;;
41817;SDS011;27493;51.730;5.294;2023-01-19T10:30:35;40.03;;;16.37;;
41817;SDS011;27493;51.730;5.294;2023-01-19T10:33:00;37.07;;;15.83;;
41817;SDS011;27493;51.730;5.294;2023-01-19T10:35:25;42.43;;;16.47;;
41817;SDS011;27493;51.730;5.294;2023-01-19T10:37:51;43.17;;;17.00;;
41817;SDS011;27493;51.730;5.294;2023-01-19T10:42:52;39.83;;;16.60;;
41817;SDS011;27493;51.730;5.294;2023-01-19T10:45:19;40.23;;;15.97;;
41817;SDS011;27493;51.730;5.294;2023-01-19T10:47:45;42.30;;;15.83;;
41817;SDS011;27493;51.730;5.294;2023-01-19T10:52:49;35.93;;;15.43;;
41817;SDS011;27493;51.730;5.294;2023-01-19T10:55:25;37.53;;;15.83;;
41817;SDS011;27493;51.730;5.294;2023-01-19T10:57:51;37.13;;;15.73;;
41817;SDS011;27493;51.730;5.294;2023-01-19T11:00:30;32.63;;;15.10;;
41817;SDS011;27493;51.730;5.294;2023-01-19T11:02:56;40.83;;;16.63;;
41817;SDS011;27493;51.730;5.294;2023-01-19T11:05:22;29.90;;;14.87;;
41817;SDS011;27493;51.730;5.294;2023-01-19T11:07:58;34.73;;;16.40;;
41817;SDS011;27493;51.730;5.294;2023-01-19T11:10:24;35.77;;;15.10;;
41817;SDS011;27493;51.730;5.294;2023-01-19T11:15:20;34.30;;;15.07;;
41817;SDS011;27493;51.730;5.294;2023-01-19T11:17:45;35.40;;;16.93;;
41817;SDS011;27493;51.730;5.294;2023-01-19T11:22:43;40.70;;;17.00;;
41817;SDS011;27493;51.730;5.294;2023-01-19T11:25:18;37.70;;;15.67;;
41817;SDS011;27493;51.730;5.294;2023-01-19T11:27:46;40.07;;;17.00;;
41817;SDS011;27493;51.730;5.294;2023-01-19T11:30:17;31.63;;;15.30;;
41817;SDS011;27493;51.730;5.294;2023-01-19T11:32:44;40.27;;;16.47;;
41817;SDS011;27493;51.730;5.294;2023-01-19T11:40:34;34.00;;;13.93;;
41817;SDS011;27493;51.730;5.294;2023-01-19T11:42:59;28.40;;;13.73;;
41817;SDS011;27493;51.730;5.294;2023-01-19T11:45:25;26.00;;;12.90;;
41817;SDS011;27493;51.730;5.294;2023-01-19T11:47:50;28.27;;;12.53;;
41817;SDS011;27493;51.730;5.294;2023-01-19T11:50:23;30.87;;;13.43;;
41817;SDS011;27493;51.730;5.294;2023-01-19T11:52:54;28.30;;;12.40;;
41817;SDS011;27493;51.730;5.294;2023-01-19T11:57:48;28.17;;;13.90;;
41817;SDS011;27493;51.730;5.294;2023-01-19T12:00:36;29.43;;;12.47;;
41817;SDS011;27493;51.730;5.294;2023-01-19T12:05:52;39.17;;;11.50;;
41817;SDS011;27493;51.730;5.294;2023-01-19T12:08:24;24.57;;;9.47;;
41817;SDS011;27493;51.730;5.294;2023-01-19T12:10:51;23.60;;;9.23;;
41817;SDS011;27493;51.730;5.294;2023-01-19T12:13:20;16.10;;;8.53;;
41817;SDS011;27493;51.730;5.294;2023-01-19T12:15:46;20.00;;;8.90;;
41817;SDS011;27493;51.730;5.294;2023-01-19T12:18:15;18.27;;;8.30;;
41817;SDS011;27493;51.730;5.294;2023-01-19T12:20:43;23.77;;;8.80;;
41817;SDS011;27493;51.730;5.294;2023-01-19T12:28:13;16.83;;;8.50;;
41817;SDS011;27493;51.730;5.294;2023-01-19T12:30:39;17.37;;;7.57;;
41817;SDS011;27493;51.730;5.294;2023-01-19T12:35:53;16.07;;;6.83;;
41817;SDS011;27493;51.730;5.294;2023-01-19T12:38:40;15.43;;;7.43;;
41817;SDS011;27493;51.730;5.294;2023-01-19T12:43:41;20.77;;;8.50;;
41817;SDS011;27493;51.730;5.294;2023-01-19T12:46:17;20.03;;;7.97;;
41817;SDS011;27493;51.730;5.294;2023-01-19T12:48:42;16.10;;;7.73;;
41817;SDS011;27493;51.730;5.294;2023-01-19T12:51:07;17.47;;;7.40;;
41817;SDS011;27493;51.730;5.294;2023-01-19T12:53:33;12.47;;;6.07;;
41817;SDS011;27493;51.730;5.294;2023-01-19T12:55:58;12.27;;;6.33;;
41817;SDS011;27493;51.730;5.294;2023-01-19T12:58:24;17.87;;;7.17;;
41817;SDS011;27493;51.730;5.294;2023-01-19T13:01:11;16.57;;;7.30;;
41817;SDS011;27493;51.730;5.294;2023-01-19T13:03:43;21.37;;;8.13;;
41817;SDS011;27493;51.730;5.294;2023-01-19T13:06:09;14.27;;;7.20;;
41817;SDS011;27493;51.730;5.294;2023-01-19T13:11:18;17.37;;;6.70;;
41817;SDS011;27493;51.730;5.294;2023-01-19T13:13:55;13.23;;;6.73;;
41817;SDS011;27493;51.730;5.294;2023-01-19T13:18:54;15.00;;;7.40;;
41817;SDS011;27493;51.730;5.294;2023-01-19T13:23:56;17.67;;;7.77;;
41817;SDS011;27493;51.730;5.294;2023-01-19T13:26:22;16.50;;;8.20;;
41817;SDS011;27493;51.730;5.294;2023-01-19T13:28:52;14.17;;;7.80;;
41817;SDS011;27493;51.730;5.294;2023-01-19T13:31:18;18.13;;;8.57;;
41817;SDS011;27493;51.730;5.294;2023-01-19T13:33:54;18.10;;;7.27;;
41817;SDS011;27493;51.730;5.294;2023-01-19T13:38:51;17.03;;;7.03;;
41817;SDS011;27493;51.730;5.294;2023-01-19T13:41:17;16.30;;;7.80;;
41817;SDS011;27493;51.730;5.294;2023-01-19T13:43:43;20.20;;;8.07;;
41817;SDS011;27493;51.730;5.294;2023-01-19T13:46:09;16.63;;;8.17;;
41817;SDS011;27493;51.730;5.294;2023-01-19T13:48:35;17.03;;;9.10;;
41817;SDS011;27493;51.730;5.294;2023-01-19T13:51:02;16.67;;;8.40;;
41817;SDS011;27493;51.730;5.294;2023-01-19T13:53:28;15.53;;;8.37;;
41817;SDS011;27493;51.730;5.294;2023-01-19T13:56:15;17.93;;;9.90;;
41817;SDS011;27493;51.730;5.294;2023-01-19T13:58:39;18.87;;;9.43;;
41817;SDS011;27493;51.730;5.294;2023-01-19T14:01:05;21.87;;;11.07;;
41817;SDS011;27493;51.730;5.294;2023-01-19T14:03:31;17.90;;;10.43;;
41817;SDS011;27493;51.730;5.294;2023-01-19T14:05:56;20.00;;;10.83;;
41817;SDS011;27493;51.730;5.294;2023-01-19T14:08:22;17.07;;;11.20;;
41817;SDS011;27493;51.730;5.294;2023-01-19T14:13:21;22.63;;;12.37;;
41817;SDS011;27493;51.730;5.294;2023-01-19T14:15:48;21.93;;;12.60;;
41817;SDS011;27493;51.730;5.294;2023-01-19T14:26:00;19.27;;;11.93;;
41817;SDS011;27493;51.730;5.294;2023-01-19T14:31:25;25.80;;;14.00;;
41817;SDS011;27493;51.730;5.294;2023-01-19T14:33:50;23.83;;;14.27;;
41817;SDS011;27493;51.730;5.294;2023-01-19T14:38:44;21.67;;;13.50;;
41817;SDS011;27493;51.730;5.294;2023-01-19T14:41:09;23.23;;;12.50;;
41817;SDS011;27493;51.730;5.294;2023-01-19T14:43:35;18.67;;;10.63;;
41817;SDS011;27493;51.730;5.294;2023-01-19T14:46:00;15.17;;;9.03;;
41817;SDS011;27493;51.730;5.294;2023-01-19T14:48:25;14.60;;;8.30;;
41817;SDS011;27493;51.730;5.294;2023-01-19T14:50:58;9.60;;;7.67;;
41817;SDS011;27493;51.730;5.294;2023-01-19T14:53:24;13.23;;;7.73;;
41817;SDS011;27493;51.730;5.294;2023-01-19T14:55:55;9.77;;;7.00;;
41817;SDS011;27493;51.730;5.294;2023-01-19T14:58:23;12.43;;;7.30;;
41817;SDS011;27493;51.730;5.294;2023-01-19T15:00:49;14.23;;;7.40;;
41817;SDS011;27493;51.730;5.294;2023-01-19T15:03:14;14.47;;;7.40;;
41817;SDS011;27493;51.730;5.294;2023-01-19T15:05:40;11.80;;;6.97;;
41817;SDS011;27493;51.730;5.294;2023-01-19T15:08:06;15.63;;;9.23;;
41817;SDS011;27493;51.730;5.294;2023-01-19T15:10:32;17.83;;;11.57;;
41817;SDS011;27493;51.730;5.294;2023-01-19T15:12:58;22.20;;;11.40;;
41817;SDS011;27493;51.730;5.294;2023-01-19T15:15:28;21.90;;;13.53;;
41817;SDS011;27493;51.730;5.294;2023-01-19T15:17:57;25.70;;;14.07;;
41817;SDS011;27493;51.730;5.294;2023-01-19T15:20:22;20.73;;;12.30;;
41817;SDS011;27493;51.730;5.294;2023-01-19T15:22:48;25.13;;;13.57;;
41817;SDS011;27493;51.730;5.294;2023-01-19T15:34:28;30.60;;;17.00;;
41817;SDS011;27493;51.730;5.294;2023-01-19T15:36:53;28.10;;;16.93;;
41817;SDS011;27493;51.730;5.294;2023-01-19T15:39:18;30.30;;;18.13;;
41817;SDS011;27493;51.730;5.294;2023-01-19T15:41:44;32.67;;;18.17;;
41817;SDS011;27493;51.730;5.294;2023-01-19T15:44:09;32.13;;;19.20;;
41817;SDS011;27493;51.730;5.294;2023-01-19T15:46:35;29.67;;;18.00;;
41817;SDS011;27493;51.730;5.294;2023-01-19T15:49:00;35.07;;;18.43;;
41817;SDS011;27493;51.730;5.294;2023-01-19T15:51:25;33.83;;;18.57;;
41817;SDS011;27493;51.730;5.294;2023-01-19T15:53:51;34.63;;;17.63;;